Time;durP1;ratioP1;P1;durP2;ratioP2;P2;SDS_P1;SDS_P2;PMS_P1;PMS_P2;Temp;Humidity;BMP_temperature;BMP_pressure;BME280_temperature;BME280_humidity;BME280_pressure;Samples;Min_cycle;Max_cycle;Signal;HPM_P1;HPM_P2
2024/03/30 00:01:47;;;;;;;3.80;2.20;;;22.60;69.00;;;;;;5062207;28;20460;-72
2024/03/30 00:04:14;;;;;;;3.50;2.87;;;22.60;69.20;;;;;;5065982;28;20440;-70
2024/03/30 00:06:41;;;;;;;12.33;2.03;;;22.60;69.20;;;;;;5066630;28;20202;-71
2024/03/30 00:09:08;;;;;;;2.50;1.87;;;22.50;69.20;;;;;;5066196;28;20921;-71
2024/03/30 00:11:33;;;;;;;3.33;2.30;;;22.50;69.30;;;;;;5064344;28;20464;-73
2024/03/30 00:14:01;;;;;;;2.13;1.73;;;22.50;69.30;;;;;;5067273;28;20451;-70
2024/03/30 00:16:27;;;;;;;2.20;1.77;;;22.50;69.40;;;;;;5068012;28;20258;-70
2024/03/30 00:18:56;;;;;;;3.70;1.70;;;22.40;69.30;;;;;;5066169;28;20787;-71
2024/03/30 00:21:21;;;;;;;2.90;1.63;;;22.40;69.40;;;;;;5066106;28;20220;-71
2024/03/30 00:23:48;;;;;;;4.03;1.80;;;22.40;69.50;;;;;;5067179;28;20530;-71
2024/03/30 00:26:15;;;;;;;6.33;2.20;;;22.40;69.50;;;;;;5070395;28;20708;-73
2024/03/30 00:28:43;;;;;;;4.60;1.67;;;22.30;69.40;;;;;;5070889;28;20536;-72
2024/03/30 00:31:10;;;;;;;2.47;1.80;;;22.30;69.50;;;;;;5062314;28;20481;-72
2024/03/30 00:33:36;;;;;;;3.40;1.80;;;22.30;69.50;;;;;;5072320;28;20977;-71
2024/03/30 00:36:02;;;;;;;2.67;1.60;;;22.20;69.60;;;;;;5069589;28;20452;-73
2024/03/30 00:38:29;;;;;;;2.60;1.83;;;22.20;69.60;;;;;;5071620;28;20447;-71
2024/03/30 00:40:54;;;;;;;2.97;1.73;;;22.20;69.70;;;;;;5071524;28;20529;-72
2024/03/30 00:43:21;;;;;;;2.40;1.63;;;22.10;69.70;;;;;;5070565;28;20768;-72
2024/03/30 00:45:47;;;;;;;2.00;1.20;;;22.10;69.80;;;;;;5068526;28;20221;-72
2024/03/30 00:48:15;;;;;;;4.37;2.23;;;22.10;69.80;;;;;;5068898;28;20471;-70
2024/03/30 00:50:41;;;;;;;3.30;1.30;;;22.10;69.90;;;;;;5066550;28;20282;-70
2024/03/30 00:53:07;;;;;;;3.50;1.90;;;22.10;70.00;;;;;;5071891;28;20459;-71
2024/03/30 00:55:33;;;;;;;4.13;1.67;;;22.00;70.00;;;;;;5065784;28;20193;-69
2024/03/30 00:58:00;;;;;;;2.70;1.80;;;22.00;70.10;;;;;;5069714;28;20225;-70
2024/03/30 01:00:27;;;;;;;2.93;1.40;;;22.00;70.10;;;;;;5063330;28;20198;-70
2024/03/30 01:02:54;;;;;;;2.63;1.90;;;21.90;70.00;;;;;;5068006;28;20466;-69
2024/03/30 01:05:21;;;;;;;3.30;1.90;;;21.90;70.10;;;;;;5073321;28;20837;-73
2024/03/30 01:07:48;;;;;;;3.73;1.53;;;21.90;69.90;;;;;;5071783;28;20800;-71
2024/03/30 01:10:14;;;;;;;2.70;1.70;;;21.80;70.20;;;;;;5071077;28;20463;-71
2024/03/30 01:12:41;;;;;;;2.10;1.60;;;21.80;70.30;;;;;;5070203;28;20840;-72
2024/03/30 01:15:08;;;;;;;2.78;1.45;;;21.80;70.40;;;;;;5069975;28;20458;-73
2024/03/30 01:17:36;;;;;;;3.10;1.67;;;21.70;70.40;;;;;;5068407;28;20682;-72
2024/03/30 01:20:05;;;;;;;2.40;1.40;;;21.70;70.50;;;;;;5068850;28;20260;-70
2024/03/30 01:22:33;;;;;;;4.05;1.73;;;21.70;70.60;;;;;;5071980;28;20532;-70
2024/03/30 01:25:00;;;;;;;2.07;1.43;;;21.60;70.60;;;;;;5069151;28;20224;-71
2024/03/30 01:27:28;;;;;;;3.25;1.30;;;21.60;70.70;;;;;;5069693;28;20462;-71
2024/03/30 01:29:55;;;;;;;3.90;1.55;;;21.60;70.80;;;;;;5070291;28;21115;-70
2024/03/30 01:32:22;;;;;;;2.70;1.83;;;21.60;70.90;;;;;;5068043;28;20190;-72
2024/03/30 01:34:48;;;;;;;2.20;1.20;;;21.50;70.90;;;;;;5069208;28;21628;-71
2024/03/30 01:37:15;;;;;;;2.63;1.50;;;21.50;71.00;;;;;;5068650;28;20204;-71
2024/03/30 01:39:42;;;;;;;4.97;2.05;;;21.50;71.10;;;;;;5067066;28;20455;-72
2024/03/30 01:42:08;;;;;;;2.10;1.50;;;21.40;71.00;;;;;;5065994;28;20689;-72
2024/03/30 01:44:34;;;;;;;4.03;1.85;;;21.40;71.20;;;;;;5069438;28;20267;-71
2024/03/30 01:47:01;;;;;;;3.00;1.60;;;21.40;71.30;;;;;;5066384;28;20193;-72
2024/03/30 01:49:28;;;;;;;1.90;1.40;;;21.40;71.30;;;;;;5068340;28;20665;-70
2024/03/30 01:51:54;;;;;;;2.88;1.60;;;21.30;71.30;;;;;;5065319;28;20259;-71
2024/03/30 01:54:21;;;;;;;2.00;1.38;;;21.30;71.40;;;;;;5070507;28;20194;-72
2024/03/30 01:56:52;;;;;;;1.90;1.40;;;21.30;71.40;;;;;;5067018;28;20200;-71
2024/03/30 01:59:18;;;;;;;2.15;1.60;;;21.30;71.50;;;;;;5067238;28;20201;-71
2024/03/30 02:01:47;;;;;;;2.33;1.30;;;21.30;71.50;;;;;;5066284;28;20208;-72
2024/03/30 02:04:14;;;;;;;3.30;1.55;;;21.30;71.60;;;;;;5069093;28;20673;-70
2024/03/30 02:06:42;;;;;;;2.55;1.63;;;21.20;71.50;;;;;;5065962;28;20221;-70
2024/03/30 02:09:10;;;;;;;3.08;1.50;;;21.20;71.70;;;;;;5063853;28;20198;-73
2024/03/30 02:11:37;;;;;;;1.73;1.40;;;21.20;71.70;;;;;;5065859;28;20194;-70
2024/03/30 02:14:05;;;;;;;2.60;1.73;;;21.20;71.80;;;;;;5066754;28;20205;-70
2024/03/30 02:16:32;;;;;;;2.22;1.38;;;21.10;71.80;;;;;;5064625;28;20560;-72
2024/03/30 02:18:58;;;;;;;1.70;1.42;;;21.10;71.90;;;;;;5064374;28;20314;-71
2024/03/30 02:21:24;;;;;;;2.70;1.30;;;21.10;71.80;;;;;;5068067;28;20197;-71
2024/03/30 02:23:51;;;;;;;2.83;1.60;;;21.00;72.00;;;;;;5066085;28;20200;-71
2024/03/30 02:26:18;;;;;;;3.83;1.73;;;21.00;71.80;;;;;;5066998;28;20253;-73
2024/03/30 02:28:44;;;;;;;2.55;1.20;;;21.00;72.10;;;;;;5068123;28;20736;-72
2024/03/30 02:31:10;;;;;;;2.20;1.60;;;21.00;73.00;;;;;;5051941;28;20198;-73
2024/03/30 02:33:36;;;;;;;2.50;1.40;;;20.90;72.20;;;;;;5065046;28;20205;-72
2024/03/30 02:36:03;;;;;;;1.90;1.40;;;20.90;72.50;;;;;;5064828;28;20201;-71
2024/03/30 02:38:30;;;;;;;2.10;1.58;;;20.90;72.50;;;;;;5065337;28;20436;-72
2024/03/30 02:40:58;;;;;;;2.40;1.60;;;20.90;72.60;;;;;;5066491;28;20205;-69
2024/03/30 02:43:24;;;;;;;1.65;1.48;;;20.80;72.30;;;;;;5069528;28;20209;-70
2024/03/30 02:45:50;;;;;;;2.10;1.50;;;20.80;72.30;;;;;;5070001;28;21060;-71
2024/03/30 02:48:16;;;;;;;4.22;1.90;;;20.80;72.70;;;;;;5066431;28;20194;-72
2024/03/30 02:50:43;;;;;;;1.83;1.57;;;20.70;72.10;;;;;;5062627;28;20294;-71
2024/03/30 02:53:08;;;;;;;2.35;1.33;;;20.70;72.30;;;;;;5062202;28;20697;-71
2024/03/30 02:55:35;;;;;;;3.20;1.57;;;20.70;73.00;;;;;;5067554;28;20186;-72
2024/03/30 02:58:02;;;;;;;1.50;1.40;;;20.70;73.10;;;;;;5068512;28;20202;-71
2024/03/30 03:00:29;;;;;;;1.20;1.00;;;20.60;73.00;;;;;;5065249;28;20194;-72
2024/03/30 03:02:55;;;;;;;1.70;1.25;;;20.60;72.30;;;;;;5065931;28;20271;-73
2024/03/30 03:05:22;;;;;;;2.57;1.70;;;20.50;72.60;;;;;;5065110;28;20765;-72
2024/03/30 03:07:47;;;;;;;2.30;1.42;;;20.50;72.80;;;;;;5066984;28;20459;-71
2024/03/30 03:10:14;;;;;;;1.60;1.50;;;20.50;73.10;;;;;;5063493;28;20198;-71
2024/03/30 03:12:40;;;;;;;1.60;1.45;;;20.50;73.50;;;;;;5066296;28;20213;-73
2024/03/30 03:15:08;;;;;;;2.13;1.47;;;20.50;73.50;;;;;;5062987;28;20198;-70
2024/03/30 03:17:35;;;;;;;2.22;1.30;;;20.40;72.80;;;;;;5066015;28;20202;-73
2024/03/30 03:20:02;;;;;;;1.67;1.40;;;20.40;72.90;;;;;;5066853;28;20197;-72
2024/03/30 03:22:28;;;;;;;1.73;1.45;;;20.30;73.60;;;;;;5065788;28;20206;-70
2024/03/30 03:24:55;;;;;;;2.10;1.23;;;20.40;74.00;;;;;;5065322;28;20209;-72
2024/03/30 03:27:21;;;;;;;1.52;1.20;;;20.40;74.00;;;;;;5064963;28;20197;-72
2024/03/30 03:29:47;;;;;;;2.50;1.50;;;20.40;74.00;;;;;;5065245;28;20205;-70
2024/03/30 03:32:14;;;;;;;2.38;1.25;;;20.40;73.90;;;;;;5061409;28;20202;-73
2024/03/30 03:34:41;;;;;;;1.83;1.20;;;20.30;74.10;;;;;;5064560;28;20206;-71
2024/03/30 03:37:07;;;;;;;2.63;1.27;;;20.40;74.20;;;;;;5061548;28;20201;-71
2024/03/30 03:39:33;;;;;;;2.60;1.30;;;20.30;74.20;;;;;;5063866;28;20719;-72
2024/03/30 03:41:59;;;;;;;2.00;1.35;;;20.30;74.30;;;;;;5062745;28;20208;-70
2024/03/30 03:44:26;;;;;;;1.60;1.30;;;20.30;74.40;;;;;;5065382;28;20198;-71
2024/03/30 03:46:51;;;;;;;1.40;1.10;;;20.20;74.50;;;;;;5061281;28;20221;-72
2024/03/30 03:49:20;;;;;;;1.60;1.30;;;20.20;74.50;;;;;;5062740;28;20194;-72
2024/03/30 03:51:45;;;;;;;3.10;1.40;;;20.20;74.50;;;;;;5062523;28;20210;-72
2024/03/30 03:54:12;;;;;;;2.03;1.30;;;20.20;74.80;;;;;;5064500;28;20203;-72
2024/03/30 03:56:38;;;;;;;1.73;1.33;;;20.20;74.80;;;;;;5056472;28;20198;-73
2024/03/30 03:59:05;;;;;;;2.10;1.57;;;20.10;74.50;;;;;;5058210;28;21121;-71
2024/03/30 04:01:31;;;;;;;2.53;1.10;;;20.10;74.80;;;;;;5060230;28;20287;-71
2024/03/30 04:03:57;;;;;;;1.80;1.00;;;20.10;75.00;;;;;;5062532;28;20291;-71
2024/03/30 04:06:24;;;;;;;1.70;1.20;;;20.10;75.10;;;;;;5061716;28;20509;-72
2024/03/30 04:08:52;;;;;;;1.95;1.75;;;20.00;74.10;;;;;;5063302;28;20209;-72
2024/03/30 04:11:17;;;;;;;1.58;1.48;;;20.00;75.20;;;;;;5060088;28;20551;-72
2024/03/30 04:13:44;;;;;;;1.97;1.47;;;20.00;75.30;;;;;;5063386;28;20201;-72
2024/03/30 04:16:10;;;;;;;1.55;1.30;;;20.00;75.40;;;;;;5058810;28;20634;-69
2024/03/30 04:18:37;;;;;;;1.93;1.13;;;20.00;75.40;;;;;;5057082;28;20231;-72
2024/03/30 04:21:04;;;;;;;1.60;1.30;;;20.00;75.50;;;;;;5062988;28;20266;-72
2024/03/30 04:23:33;;;;;;;1.95;1.40;;;20.00;75.60;;;;;;5065071;28;20595;-72
2024/03/30 04:26:03;;;;;;;4.60;1.85;;;19.90;75.50;;;;;;5064291;28;22245;-71
2024/03/30 04:28:30;;;;;;;1.95;1.48;;;19.90;75.50;;;;;;5065408;28;20198;-70
2024/03/30 04:30:55;;;;;;;1.27;1.17;;;19.90;74.30;;;;;;5061014;28;20209;-71
2024/03/30 04:33:22;;;;;;;3.17;1.20;;;19.80;74.90;;;;;;5067088;28;20763;-70
2024/03/30 04:35:53;;;;;;;2.40;1.20;;;19.80;74.50;;;;;;5060509;28;20558;-73
2024/03/30 04:38:20;;;;;;;2.28;1.20;;;19.80;75.70;;;;;;5062816;28;20190;-72
2024/03/30 04:40:56;;;;;;;1.65;1.00;;;19.80;75.90;;;;;;5060724;28;20206;-71
2024/03/30 04:43:23;;;;;;;1.83;1.20;;;19.80;74.90;;;;;;5065126;28;20197;-72
2024/03/30 04:45:49;;;;;;;1.60;1.30;;;19.70;75.90;;;;;;5064919;28;20871;-72
2024/03/30 04:48:15;;;;;;;1.93;1.30;;;19.70;75.90;;;;;;5063247;28;20209;-72
2024/03/30 04:50:41;;;;;;;1.48;1.33;;;19.70;76.00;;;;;;5060195;28;20209;-72
2024/03/30 04:53:08;;;;;;;1.40;1.20;;;19.70;76.20;;;;;;5064045;28;20783;-71
2024/03/30 04:55:33;;;;;;;1.73;1.10;;;19.70;76.00;;;;;;5062746;28;21171;-71
2024/03/30 04:58:01;;;;;;;1.83;1.20;;;19.70;76.30;;;;;;5065202;28;20193;-71
2024/03/30 05:00:28;;;;;;;3.15;1.40;;;19.70;76.40;;;;;;5062704;28;20198;-72
2024/03/30 05:02:54;;;;;;;1.58;1.00;;;19.70;76.40;;;;;;5062546;28;20198;-72
2024/03/30 05:05:20;;;;;;;1.83;1.63;;;19.70;76.50;;;;;;5061209;28;20690;-72
2024/03/30 05:07:46;;;;;;;1.45;1.10;;;19.60;76.30;;;;;;5058365;28;20272;-69
2024/03/30 05:10:13;;;;;;;1.90;1.30;;;19.60;76.50;;;;;;5059952;28;20194;-70
2024/03/30 05:12:40;;;;;;;2.67;1.45;;;19.60;76.70;;;;;;5061941;28;20202;-70
2024/03/30 05:15:08;;;;;;;1.55;1.02;;;19.60;76.70;;;;;;5064959;28;20671;-71
2024/03/30 05:17:34;;;;;;;1.42;1.10;;;19.60;76.70;;;;;;5066514;28;20300;-72
2024/03/30 05:22:45;;;;;;;1.38;1.00;;;19.50;76.80;;;;;;5063521;28;20304;-72
2024/03/30 05:25:11;;;;;;;1.35;1.10;;;19.50;76.80;;;;;;5065039;28;20206;-72
2024/03/30 05:27:37;;;;;;;1.87;1.30;;;19.50;76.90;;;;;;5064997;28;20713;-70
2024/03/30 05:30:04;;;;;;;1.40;1.05;;;19.50;76.90;;;;;;5060702;28;20256;-71
2024/03/30 05:32:32;;;;;;;1.70;1.30;;;19.50;77.00;;;;;;5063703;28;20190;-73
2024/03/30 05:34:58;;;;;;;1.50;1.33;;;19.50;77.10;;;;;;5068980;28;20206;-72
2024/03/30 05:37:25;;;;;;;1.50;1.17;;;19.50;77.00;;;;;;5066479;28;20190;-72
2024/03/30 05:39:51;;;;;;;1.48;1.10;;;19.50;77.20;;;;;;5066663;28;20259;-72
2024/03/30 05:42:17;;;;;;;2.13;1.45;;;19.40;77.10;;;;;;5066820;28;20600;-71
2024/03/30 05:44:46;;;;;;;1.40;1.10;;;19.40;77.10;;;;;;5068233;28;20246;-72
2024/03/30 05:47:13;;;;;;;1.48;1.20;;;19.40;77.20;;;;;;5069006;28;20214;-71
2024/03/30 05:49:40;;;;;;;2.58;1.23;;;19.40;77.30;;;;;;5068942;28;20193;-71
2024/03/30 05:52:07;;;;;;;1.77;1.40;;;19.40;77.40;;;;;;5064090;28;20198;-72
2024/03/30 05:54:33;;;;;;;2.20;1.13;;;19.40;77.40;;;;;;5066308;28;20213;-71
2024/03/30 05:56:59;;;;;;;1.40;1.13;;;19.40;77.50;;;;;;5071694;28;20197;-72
2024/03/30 05:59:25;;;;;;;1.40;1.02;;;19.40;77.50;;;;;;5064916;28;20455;-72
2024/03/30 06:01:52;;;;;;;1.17;1.07;;;19.40;77.60;;;;;;5068038;28;20701;-71
2024/03/30 06:04:17;;;;;;;2.28;1.10;;;19.30;77.60;;;;;;5071237;28;20202;-73
2024/03/30 06:06:45;;;;;;;1.10;0.90;;;19.30;78.40;;;;;;5067614;28;20217;-72
2024/03/30 06:09:11;;;;;;;1.90;1.20;;;19.30;77.70;;;;;;5069561;28;20201;-71
2024/03/30 06:11:38;;;;;;;1.30;1.10;;;19.30;77.80;;;;;;5064157;28;20555;-70
2024/03/30 06:14:03;;;;;;;1.20;1.10;;;19.30;77.80;;;;;;5067899;28;20214;-71
2024/03/30 06:16:30;;;;;;;1.30;1.10;;;19.30;77.90;;;;;;5065547;28;20194;-72
2024/03/30 06:18:56;;;;;;;2.15;1.10;;;19.20;77.80;;;;;;5062765;28;20513;-71
2024/03/30 06:21:23;;;;;;;2.25;1.23;;;19.20;77.80;;;;;;5069900;28;20201;-71
2024/03/30 06:23:50;;;;;;;1.30;1.20;;;19.20;77.90;;;;;;5069031;28;20259;-70
2024/03/30 06:26:16;;;;;;;1.63;1.00;;;19.20;77.90;;;;;;5066920;28;20206;-70
2024/03/30 06:28:42;;;;;;;1.30;1.20;;;19.20;78.00;;;;;;5066198;28;20206;-71
2024/03/30 06:31:09;;;;;;;1.50;0.90;;;19.20;78.10;;;;;;5063013;28;20197;-71
2024/03/30 06:33:35;;;;;;;2.08;1.20;;;19.20;78.10;;;;;;5065691;28;20297;-72
2024/03/30 06:36:01;;;;;;;1.23;1.13;;;19.20;78.20;;;;;;5066935;28;20298;-71
2024/03/30 06:38:27;;;;;;;1.30;0.90;;;19.20;78.20;;;;;;5068607;28;20198;-71
2024/03/30 06:43:42;;;;;;;1.40;1.27;;;19.10;78.20;;;;;;5069415;28;20726;-73
2024/03/30 06:46:09;;;;;;;1.27;1.15;;;19.10;78.20;;;;;;5072004;28;20225;-72
2024/03/30 06:48:36;;;;;;;3.65;1.15;;;19.10;78.30;;;;;;5066345;28;20206;-72
2024/03/30 06:51:03;;;;;;;1.40;1.20;;;19.10;78.50;;;;;;5069271;28;20552;-71
2024/03/30 06:53:29;;;;;;;1.50;1.00;;;19.10;78.70;;;;;;5073194;28;20324;-71
2024/03/30 06:55:57;;;;;;;2.20;1.25;;;19.10;78.70;;;;;;5064480;28;20194;-71
2024/03/30 06:58:24;;;;;;;3.00;1.08;;;19.10;78.60;;;;;;5073280;28;20283;-74
2024/03/30 07:00:50;;;;;;;2.67;1.27;;;19.10;78.90;;;;;;5069562;28;20197;-72
2024/03/30 07:03:17;;;;;;;2.83;1.03;;;19.10;79.40;;;;;;5070959;28;20556;-68
2024/03/30 07:05:43;;;;;;;3.88;1.50;;;19.10;79.90;;;;;;5066477;28;20745;-70
2024/03/30 07:08:09;;;;;;;1.40;1.25;;;19.10;80.20;;;;;;5063592;28;20213;-71
2024/03/30 07:10:36;;;;;;;2.23;1.23;;;19.10;80.20;;;;;;5059161;28;20197;-70
2024/03/30 07:13:03;;;;;;;1.80;1.10;;;19.10;80.50;;;;;;5066491;28;20233;-72
2024/03/30 07:15:30;;;;;;;1.60;1.02;;;19.10;80.60;;;;;;5064258;28;21225;-70
2024/03/30 07:17:57;;;;;;;2.35;1.05;;;19.10;80.60;;;;;;5065994;28;20610;-70
2024/03/30 07:20:24;;;;;;;3.55;1.20;;;19.00;80.50;;;;;;5063288;28;20197;-74
2024/03/30 07:22:50;;;;;;;1.88;1.13;;;19.00;80.50;;;;;;5064579;28;20201;-74
2024/03/30 07:25:17;;;;;;;2.17;1.20;;;19.10;80.50;;;;;;5064481;28;20189;-70
2024/03/30 07:27:42;;;;;;;1.80;1.17;;;19.00;80.40;;;;;;5066603;28;20217;-72
2024/03/30 07:30:11;;;;;;;3.97;1.67;;;19.10;80.70;;;;;;5065608;28;20221;-73
2024/03/30 07:32:36;;;;;;;4.00;1.55;;;19.00;80.70;;;;;;5065374;28;20978;-72
2024/03/30 07:35:03;;;;;;;1.90;1.13;;;19.00;81.00;;;;;;5067258;28;20206;-71
2024/03/30 07:37:29;;;;;;;1.60;1.10;;;19.00;81.20;;;;;;5065886;28;20198;-70
2024/03/30 07:39:55;;;;;;;2.23;1.10;;;19.10;81.90;;;;;;5066733;28;20691;-73
2024/03/30 07:42:21;;;;;;;3.30;1.00;;;19.20;81.60;;;;;;5062626;28;20206;-71
2024/03/30 07:44:48;;;;;;;1.70;1.27;;;19.20;81.40;;;;;;5067361;28;20189;-71
2024/03/30 07:47:15;;;;;;;1.75;1.10;;;19.30;81.10;;;;;;5065830;28;20221;-72
2024/03/30 07:49:41;;;;;;;1.20;0.95;;;19.50;80.90;;;;;;5069366;28;20201;-70
2024/03/30 07:52:07;;;;;;;1.20;0.98;;;19.60;80.40;;;;;;5065370;28;20194;-71
2024/03/30 07:54:34;;;;;;;3.53;0.93;;;19.70;80.00;;;;;;5066630;28;20190;-72
2024/03/30 07:57:00;;;;;;;1.20;0.98;;;19.80;79.70;;;;;;5066141;28;20214;-74
2024/03/30 07:59:28;;;;;;;2.58;1.13;;;19.90;79.60;;;;;;5065022;28;20190;-70
2024/03/30 08:01:53;;;;;;;1.50;1.15;;;19.80;81.00;;;;;;5063614;28;20206;-73
2024/03/30 08:04:22;;;;;;;2.60;1.23;;;19.80;81.90;;;;;;5072215;28;20186;-71
2024/03/30 08:06:49;;;;;;;2.70;1.30;;;19.70;80.90;;;;;;5067249;28;20220;-71
2024/03/30 08:09:16;;;;;;;1.20;1.08;;;19.80;81.20;;;;;;5065337;28;20315;-72
2024/03/30 08:11:43;;;;;;;1.55;1.00;;;19.80;81.50;;;;;;5063688;28;20431;-71
2024/03/30 08:14:10;;;;;;;1.83;1.17;;;19.80;81.50;;;;;;5063940;28;20732;-73
2024/03/30 08:16:36;;;;;;;3.05;1.27;;;19.80;81.20;;;;;;4995666;28;21112;-74
2024/03/30 08:19:04;;;;;;;2.00;1.30;;;19.80;80.90;;;;;;4874770;28;20224;-73
2024/03/30 08:21:31;;;;;;;2.33;1.10;;;19.80;80.90;;;;;;4878050;28;29838;-73
2024/03/30 08:23:58;;;;;;;1.50;1.10;;;19.90;80.90;;;;;;4870915;28;20460;-73
2024/03/30 08:26:23;;;;;;;1.40;1.30;;;19.90;80.80;;;;;;4878253;28;21185;-74
2024/03/30 08:28:50;;;;;;;1.53;1.07;;;19.90;80.70;;;;;;4886623;28;21894;-74
2024/03/30 08:31:16;;;;;;;1.63;1.47;;;20.00;80.50;;;;;;4868573;28;20208;-74
2024/03/30 08:33:43;;;;;;;1.63;1.20;;;20.00;80.10;;;;;;4870612;28;20457;-73
2024/03/30 08:36:09;;;;;;;2.27;1.30;;;20.00;80.10;;;;;;4867813;28;20499;-72
2024/03/30 08:38:37;;;;;;;2.07;1.30;;;20.10;80.00;;;;;;4871284;28;20453;-74
2024/03/30 08:41:03;;;;;;;2.17;1.20;;;20.20;79.30;;;;;;4869501;28;20994;-72
2024/03/30 08:43:30;;;;;;;1.40;0.90;;;20.20;79.50;;;;;;4873200;28;20459;-73
2024/03/30 08:45:57;;;;;;;1.60;1.00;;;20.30;79.40;;;;;;4877630;28;20458;-74
2024/03/30 08:48:24;;;;;;;1.30;1.17;;;20.30;79.10;;;;;;4872202;28;20480;-74
2024/03/30 08:50:50;;;;;;;1.60;0.90;;;20.30;79.10;;;;;;4874102;28;20463;-73
2024/03/30 08:53:17;;;;;;;2.10;1.30;;;20.30;79.00;;;;;;4878662;28;21916;-74
2024/03/30 08:55:44;;;;;;;2.90;1.13;;;20.40;78.90;;;;;;4946241;28;20443;-73
2024/03/30 08:58:10;;;;;;;1.70;1.13;;;20.40;78.60;;;;;;4940189;28;20201;-72
2024/03/30 09:00:36;;;;;;;1.20;1.10;;;20.50;78.40;;;;;;4938672;28;20557;-73
2024/03/30 09:03:04;;;;;;;1.53;0.97;;;20.50;77.90;;;;;;4919689;28;20455;-73
2024/03/30 09:05:30;;;;;;;1.40;0.80;;;20.60;78.00;;;;;;4925911;28;20581;-73
2024/03/30 09:07:57;;;;;;;1.30;1.00;;;20.70;77.70;;;;;;4917456;28;27483;-72
2024/03/30 09:10:24;;;;;;;1.30;1.00;;;20.70;77.30;;;;;;4930526;28;20894;-71
2024/03/30 09:12:52;;;;;;;2.90;1.27;;;20.80;77.30;;;;;;5066985;28;20471;-71
2024/03/30 09:15:19;;;;;;;1.20;0.98;;;20.80;76.90;;;;;;5067133;28;20466;-72
2024/03/30 09:17:46;;;;;;;2.50;1.17;;;20.90;76.70;;;;;;5073082;28;20209;-71
2024/03/30 09:20:11;;;;;;;1.57;1.13;;;21.00;76.40;;;;;;5062830;28;20526;-71
2024/03/30 09:22:39;;;;;;;1.10;0.90;;;21.00;76.10;;;;;;5071054;28;20450;-72
2024/03/30 09:25:12;;;;;;;1.43;1.10;;;21.10;75.80;;;;;;4981469;28;20204;-71
2024/03/30 09:27:39;;;;;;;2.07;1.87;;;21.10;75.60;;;;;;4926853;28;20482;-73
2024/03/30 09:30:08;;;;;;;1.20;0.90;;;21.10;75.50;;;;;;4931914;28;20450;-73
2024/03/30 09:32:36;;;;;;;1.60;1.13;;;21.20;75.40;;;;;;4929035;28;20462;-72
2024/03/30 09:35:01;;;;;;;2.30;1.30;;;21.20;75.20;;;;;;4920448;28;22277;-74
2024/03/30 09:37:28;;;;;;;1.30;0.83;;;21.20;75.00;;;;;;4932552;28;20451;-71
2024/03/30 09:39:54;;;;;;;2.23;1.10;;;21.30;75.00;;;;;;4929625;28;20228;-73
2024/03/30 09:42:28;;;;;;;2.43;1.13;;;21.30;74.70;;;;;;4931027;28;20455;-74
2024/03/30 09:44:54;;;;;;;1.50;1.13;;;21.40;74.50;;;;;;4923493;28;20318;-74
2024/03/30 09:47:24;;;;;;;1.60;1.00;;;21.50;75.10;;;;;;4927517;28;21118;-72
2024/03/30 09:49:51;;;;;;;1.30;0.80;;;21.50;74.50;;;;;;4928970;28;20582;-74
2024/03/30 09:52:20;;;;;;;2.27;1.40;;;21.60;73.80;;;;;;4996390;28;21364;-74
2024/03/30 09:54:49;;;;;;;1.50;1.00;;;21.60;75.00;;;;;;5069240;28;21200;-75
2024/03/30 09:57:16;;;;;;;3.10;1.13;;;21.60;75.60;;;;;;5068258;28;20455;-73
2024/03/30 09:59:43;;;;;;;2.83;1.23;;;21.70;75.00;;;;;;5069278;28;20617;-73
2024/03/30 10:02:10;;;;;;;1.83;1.00;;;21.70;74.90;;;;;;5052979;28;20448;-72
2024/03/30 10:04:38;;;;;;;5.07;1.10;;;21.80;74.70;;;;;;5063392;28;20451;-71
2024/03/30 10:07:12;;;;;;;1.40;0.90;;;21.80;74.40;;;;;;5063206;28;20467;-72
2024/03/30 10:09:38;;;;;;;1.50;0.90;;;21.80;74.00;;;;;;5067145;28;20999;-72
2024/03/30 10:12:11;;;;;;;1.57;1.10;;;21.90;73.80;;;;;;5064261;28;20488;-72
2024/03/30 10:14:43;;;;;;;3.57;1.30;;;21.90;72.60;;;;;;5062177;28;20205;-72
2024/03/30 10:17:10;;;;;;;1.23;1.00;;;22.00;72.80;;;;;;5068109;28;20450;-74
2024/03/30 10:19:40;;;;;;;1.60;1.00;;;22.00;72.80;;;;;;5044125;28;20475;-72
2024/03/30 10:22:07;;;;;;;4.33;1.03;;;22.00;73.40;;;;;;5071278;28;21022;-72
2024/03/30 10:24:34;;;;;;;2.17;1.40;;;22.00;72.60;;;;;;5067539;28;20464;-71
2024/03/30 10:27:00;;;;;;;2.13;1.10;;;22.10;73.30;;;;;;5062807;28;20493;-72
2024/03/30 10:29:27;;;;;;;2.77;1.40;;;22.10;73.20;;;;;;5054236;28;20823;-71
2024/03/30 10:31:54;;;;;;;1.13;0.80;;;22.20;72.80;;;;;;5061076;28;21169;-72
2024/03/30 10:34:20;;;;;;;1.67;1.23;;;22.30;73.10;;;;;;5066036;28;20980;-72
2024/03/30 10:36:48;;;;;;;1.17;0.90;;;22.30;72.30;;;;;;5070217;28;20448;-71
2024/03/30 10:39:14;;;;;;;1.43;1.07;;;22.40;72.10;;;;;;5063635;28;20731;-72
2024/03/30 10:41:42;;;;;;;1.33;1.13;;;22.40;73.20;;;;;;5062820;28;20455;-70
2024/03/30 10:44:08;;;;;;;3.53;1.17;;;22.50;73.00;;;;;;5066462;28;20499;-73
2024/03/30 10:46:34;;;;;;;1.50;1.20;;;22.50;72.90;;;;;;5070425;28;20653;-72
2024/03/30 10:49:00;;;;;;;2.23;0.97;;;22.50;72.10;;;;;;5065244;28;20194;-72
2024/03/30 10:51:28;;;;;;;1.10;0.90;;;22.60;70.90;;;;;;5064540;28;20945;-73
2024/03/30 10:54:04;;;;;;;2.97;1.07;;;22.60;72.00;;;;;;5066517;28;20689;-71
2024/03/30 10:56:31;;;;;;;1.80;1.00;;;22.60;71.50;;;;;;5068834;28;20474;-70
2024/03/30 10:59:00;;;;;;;1.73;1.00;;;22.60;71.80;;;;;;5061432;28;20461;-73
2024/03/30 11:01:28;;;;;;;1.57;1.10;;;22.70;72.40;;;;;;5063830;28;20443;-72
2024/03/30 11:03:54;;;;;;;3.87;1.87;;;22.70;72.20;;;;;;5065698;28;20466;-72
2024/03/30 11:06:22;;;;;;;2.80;1.80;;;22.70;72.00;;;;;;5063937;28;20975;-72
2024/03/30 11:08:49;;;;;;;4.70;2.43;;;22.80;72.10;;;;;;5059698;28;20479;-73
2024/03/30 11:11:18;;;;;;;4.10;2.70;;;22.80;72.10;;;;;;5063834;28;20509;-72
2024/03/30 11:13:44;;;;;;;4.03;2.87;;;22.80;71.90;;;;;;5064136;28;20468;-72
2024/03/30 11:16:13;;;;;;;4.37;3.33;;;22.90;71.90;;;;;;5068150;28;20462;-72
2024/03/30 11:18:52;;;;;;;7.00;4.17;;;22.90;71.90;;;;;;5060623;28;20967;-72
2024/03/30 11:21:26;;;;;;;5.83;4.53;;;22.90;71.80;;;;;;5065724;28;20586;-72
2024/03/30 11:23:56;;;;;;;7.83;5.60;;;23.00;71.70;;;;;;5071476;28;20451;-73
2024/03/30 11:26:24;;;;;;;10.00;6.33;;;23.00;71.60;;;;;;5065854;28;20455;-72
2024/03/30 11:28:59;;;;;;;12.57;7.47;;;23.00;71.30;;;;;;5065720;28;20479;-73
2024/03/30 11:31:39;;;;;;;12.07;8.30;;;23.00;71.50;;;;;;5063134;28;20450;-74
2024/03/30 11:34:12;;;;;;;16.10;9.17;;;23.10;71.40;;;;;;5063350;28;20944;-73
2024/03/30 11:36:46;;;;;;;12.53;9.43;;;23.10;71.30;;;;;;5057953;28;20503;-73
2024/03/30 11:39:24;;;;;;;17.63;10.80;;;23.10;71.30;;;;;;4998460;28;20533;-73
2024/03/30 11:41:56;;;;;;;17.23;12.03;;;23.20;70.60;;;;;;4997074;28;20455;-73
2024/03/30 11:44:25;;;;;;;15.80;11.73;;;23.20;70.20;;;;;;4993035;28;20466;-73
2024/03/30 11:46:52;;;;;;;19.47;12.50;;;23.20;70.40;;;;;;4994417;28;20455;-73
2024/03/30 11:49:19;;;;;;;33.97;21.83;;;23.20;70.20;;;;;;4997967;28;20497;-73
2024/03/30 11:51:45;;;;;;;53.17;32.50;;;23.20;70.90;;;;;;4974499;28;20458;-72
2024/03/30 11:54:19;;;;;;;63.30;33.63;;;23.30;71.20;;;;;;4972905;28;20519;-73
2024/03/30 11:56:56;;;;;;;48.57;30.23;;;23.30;71.40;;;;;;4971973;28;20636;-73
2024/03/30 11:59:22;;;;;;;44.83;29.67;;;23.30;71.40;;;;;;4980498;28;23376;-72
2024/03/30 12:01:48;;;;;;;44.03;28.97;;;23.30;71.30;;;;;;4969978;28;20452;-73
2024/03/30 12:04:14;;;;;;;47.00;28.87;;;23.40;71.30;;;;;;4973114;28;20966;-72
2024/03/30 12:06:41;;;;;;;43.27;27.30;;;23.40;71.10;;;;;;4973689;28;20458;-73
2024/03/30 12:09:07;;;;;;;43.97;27.07;;;23.40;70.90;;;;;;4967459;28;20355;-72
2024/03/30 12:11:34;;;;;;;38.63;24.87;;;23.40;70.60;;;;;;4977388;28;20579;-73
2024/03/30 12:14:05;;;;;;;37.07;24.90;;;23.40;70.60;;;;;;4970939;28;23331;-73
2024/03/30 12:16:32;;;;;;;37.63;25.00;;;23.50;70.50;;;;;;4971279;28;20451;-73
2024/03/30 12:18:58;;;;;;;41.50;24.93;;;23.50;69.60;;;;;;5067429;28;20456;-72
2024/03/30 12:21:25;;;;;;;37.83;25.27;;;23.50;70.00;;;;;;5068836;28;21184;-72
2024/03/30 12:23:51;;;;;;;36.17;24.17;;;23.50;69.80;;;;;;5041282;28;20209;-72
2024/03/30 12:26:18;;;;;;;40.33;23.40;;;23.50;69.60;;;;;;5050791;28;20495;-73
2024/03/30 12:28:44;;;;;;;37.70;23.43;;;23.50;69.60;;;;;;5066069;28;20222;-72
2024/03/30 12:31:11;;;;;;;40.70;24.03;;;23.50;69.70;;;;;;5063047;28;20445;-72
2024/03/30 12:33:38;;;;;;;33.60;22.63;;;23.50;69.50;;;;;;5065739;28;20194;-72
2024/03/30 12:36:05;;;;;;;43.73;25.23;;;23.50;69.40;;;;;;5065060;28;20459;-72
2024/03/30 12:38:31;;;;;;;35.33;22.70;;;23.60;69.00;;;;;;5070087;28;20533;-72
2024/03/30 12:40:58;;;;;;;33.83;24.47;;;23.60;70.10;;;;;;5063243;28;20452;-72
2024/03/30 12:43:23;;;;;;;34.40;23.00;;;23.60;69.20;;;;;;5068828;28;20570;-72
2024/03/30 12:45:50;;;;;;;35.60;21.50;;;23.60;69.10;;;;;;5067571;28;20452;-72
2024/03/30 12:48:17;;;;;;;36.70;24.10;;;23.60;69.00;;;;;;5070427;28;20247;-72
2024/03/30 12:50:44;;;;;;;36.43;24.03;;;23.60;68.40;;;;;;5069340;28;20982;-72